地図

経路データ

SID SEASON NUMBER BASIN SUBBASIN NAME ISO_TIME NATURE LAT LON WMO_WIND WMO_PRES WMO_AGENCY TRACK_TYPE DIST2LAND LANDFALL IFLAG USA_AGENCY USA_ATCF_ID USA_LAT USA_LON USA_RECORD USA_STATUS USA_WIND USA_PRES USA_SSHS USA_R34_NE USA_R34_SE USA_R34_SW USA_R34_NW USA_R50_NE USA_R50_SE USA_R50_SW USA_R50_NW USA_R64_NE USA_R64_SE USA_R64_SW USA_R64_NW USA_POCI USA_ROCI USA_RMW USA_EYE TOKYO_LAT TOKYO_LON TOKYO_GRADE TOKYO_WIND TOKYO_PRES TOKYO_R50_DIR TOKYO_R50_LONG TOKYO_R50_SHORT TOKYO_R30_DIR TOKYO_R30_LONG TOKYO_R30_SHORT TOKYO_LAND CMA_LAT CMA_LON CMA_CAT CMA_WIND CMA_PRES HKO_LAT HKO_LON HKO_CAT HKO_WIND HKO_PRES NEWDELHI_LAT NEWDELHI_LON NEWDELHI_GRADE NEWDELHI_WIND NEWDELHI_PRES NEWDELHI_CI NEWDELHI_DP NEWDELHI_POCI REUNION_LAT REUNION_LON REUNION_TYPE REUNION_WIND REUNION_PRES REUNION_TNUM REUNION_CI REUNION_RMW REUNION_R34_NE REUNION_R34_SE REUNION_R34_SW REUNION_R34_NW REUNION_R50_NE REUNION_R50_SE REUNION_R50_SW REUNION_R50_NW REUNION_R64_NE REUNION_R64_SE REUNION_R64_SW REUNION_R64_NW BOM_LAT BOM_LON BOM_TYPE BOM_WIND BOM_PRES BOM_TNUM BOM_CI BOM_RMW BOM_R34_NE BOM_R34_SE BOM_R34_SW BOM_R34_NW BOM_R50_NE BOM_R50_SE BOM_R50_SW BOM_R50_NW BOM_R64_NE BOM_R64_SE BOM_R64_SW BOM_R64_NW BOM_ROCI BOM_POCI BOM_EYE BOM_POS_METHOD BOM_PRES_METHOD NADI_LAT NADI_LON NADI_CAT NADI_WIND NADI_PRES WELLINGTON_LAT WELLINGTON_LON WELLINGTON_WIND WELLINGTON_PRES DS824_LAT DS824_LON DS824_STAGE DS824_WIND DS824_PRES TD9636_LAT TD9636_LON TD9636_STAGE TD9636_WIND TD9636_PRES TD9635_LAT TD9635_LON TD9635_WIND TD9635_PRES TD9635_ROCI NEUMANN_LAT NEUMANN_LON NEUMANN_CLASS NEUMANN_WIND NEUMANN_PRES MLC_LAT MLC_LON MLC_CLASS MLC_WIND MLC_PRES USA_GUST BOM_GUST BOM_GUST_PER REUNION_GUST REUNION_GUST_PER USA_SEAHGT USA_SEARAD_NE USA_SEARAD_SE USA_SEARAD_SW USA_SEARAD_NW STORM_SPEED STORM_DIR
1975072S15052 1975 28 SI MM NOT_NAMED 1975-03-13 06:00:00 TS -15.1000 52.0000 spur-merge 161 160 O________OO___ jtwc_sh SH261975 -15.1000 52.0000 -1 -15.1000 52.0000 TC 25 -15.1000 52.0000 1 6 190
1975072S15052 1975 28 SI MM NOT_NAMED 1975-03-13 09:00:00 TS -15.3918 51.9491 spur-merge 150 150 P________PP___ SH261975 -15.4025 51.9401 -1 -15.4025 51.9401 TC 25 -15.3704 51.9673 1 6 189
1975072S15052 1975 28 SI MM NOT_NAMED 1975-03-13 12:00:00 TS -15.6842 51.9125 spur-merge 153 153 O________OP___ jtwc_sh SH261975 -15.7000 51.9000 -1 -15.7000 51.9000 TC 25 -15.6526 51.9376 1 6 184
1975072S15052 1975 28 SI MM NOT_NAMED 1975-03-13 15:00:00 TS -15.9812 51.8997 spur-merge 164 164 P________PP___ SH261975 -15.9925 51.8925 -1 -15.9925 51.8925 TC 25 -15.9585 51.9141 1 6 0
1975072S15052 1975 28 SI MM NOT_NAMED 1975-03-13 18:00:00 TS -16.3000 51.9000 spur-merge 178 178 O________OO___ jtwc_sh SH261975 -16.3000 51.9000 -1 -16.3000 51.9000 TC 25 -16.3000 51.9000 1 7 0
1975072S15052 1975 28 SI MM NOT_NAMED 1975-03-13 21:00:00 TS -16.6551 51.8945 spur-merge 197 197 P________PP___ SH261975 -16.6425 51.8925 -1 -16.6425 51.8925 TC 25 -16.6803 51.8984 1 7 0
1975072S15052 1975 28 SI MM NOT_NAMED 1975-03-14 00:00:00 TS -17.0225 51.9041 spur-merge 213 213 O________OP___ jtwc_sh SH261975 -17.0000 51.9000 -1 -17.0000 51.9000 TC 25 -17.0675 51.9124 1 7 177
1975072S15052 1975 28 SI MM NOT_NAMED 1975-03-14 03:00:00 TS -17.3986 51.9384 spur-merge 233 233 P________PP___ SH261975 -17.3875 51.9350 -1 -17.3875 51.9350 TC 30 -17.4209 51.9453 1 7 173
1975072S15052 1975 28 SI MM NOT_NAMED 1975-03-14 06:00:00 TS -17.7000 52.0000 spur-merge 254 254 O________OO___ jtwc_sh SH261975 -17.7000 52.0000 -1 -17.7000 52.0000 TC 35 -17.7000 52.0000 2 5 163
1975072S15052 1975 28 SI MM NOT_NAMED 1975-03-14 09:00:00 TS -17.8439 52.0838 spur-merge 268 268 P________PP___ SH261975 -17.8450 52.0925 -1 -17.8450 52.0925 TC 35 -17.8418 52.0664 2 3 139
1975072S15052 1975 28 SI MM NOT_NAMED 1975-03-14 12:00:00 TS -17.9033 52.1851 spur-merge 282 282 O________OP___ jtwc_sh SH261975 -17.9000 52.2000 -1 -17.9000 52.2000 TC 35 -17.9099 52.1553 2 2 118
1975072S15052 1975 28 SI MM NOT_NAMED 1975-03-14 15:00:00 TS -17.9443 52.2889 spur-merge 292 292 P________PP___ SH261975 -17.9425 52.3000 -1 -17.9425 52.3000 TC 35 -17.9481 52.2665 2 2 115
1975072S15052 1975 28 SI MM NOT_NAMED 1975-03-14 18:00:00 TS -18.0000 52.4000 spur-merge 306 306 O________OO___ jtwc_sh SH261975 -18.0000 52.4000 -1 -18.0000 52.4000 TC 35 -18.0000 52.4000 2 3 133
1975072S15052 1975 28 SI MM NOT_NAMED 1975-03-14 21:00:00 TS -18.1286 52.4908 spur-merge 320 320 P________PP___ SH261975 -18.1349 52.4776 -1 -18.1349 52.4776 TC 35 -18.1160 52.5172 2 4 144
1975072S15052 1975 28 SI MM NOT_NAMED 1975-03-15 00:00:00 TS -18.2848 52.6202 spur-merge 334 334 O________OP___ jtwc_sh SH261975 -18.3000 52.6000 -1 -18.3000 52.6000 TC 35 -18.2545 52.6606 2 4 134
1975072S15052 1975 28 SI MM NOT_NAMED 1975-03-15 03:00:00 TS -18.4336 52.8196 spur-merge 357 353 P________PP___ SH261975 -18.4424 52.8051 -1 -18.4424 52.8051 TC 35 -18.4158 52.8486 2 6 125
1975072S15052 1975 28 SI MM NOT_NAMED 1975-03-15 06:00:00 TS -18.6000 53.1000 spur-merge 353 316 O________OO___ jtwc_sh SH261975 -18.6000 53.1000 -1 -18.6000 53.1000 TC 35 -18.6000 53.1000 2 7 120
1975072S15052 1975 28 SI MM NOT_NAMED 1975-03-15 09:00:00 TS -18.7912 53.4621 spur-merge 309 267 P________PP___ SH261975 -18.7850 53.4775 -1 -18.7850 53.4775 TC 35 -18.8036 53.4311 2 8 119
1975072S15052 1975 28 SI MM NOT_NAMED 1975-03-15 12:00:00 TS -19.0093 53.8750 spur-merge 267 226 O________OP___ jtwc_sh SH261975 -19.0000 53.9000 -1 -19.0000 53.9000 TC 35 -19.0278 53.8248 2 9 121
1975072S15052 1975 28 SI MM NOT_NAMED 1975-03-15 15:00:00 TS -19.2543 54.2854 spur-merge 216 179 P________PP___ SH261975 -19.2499 54.3000 -1 -19.2499 54.3000 TC 35 -19.2629 54.2562 2 9 122
1975072S15052 1975 28 SI MM NOT_NAMED 1975-03-15 18:00:00 TS -19.5000 54.7000 spur-merge 179 146 O________OO___ jtwc_sh SH261975 -19.5000 54.7000 -1 -19.5000 54.7000 TC 35 -19.5000 54.7000 2 9 121
1975072S15052 1975 28 SI MM NOT_NAMED 1975-03-15 21:00:00 TS -19.7094 55.0972 spur-merge 146 123 P________PP___ SH261975 -19.6999 55.0927 -1 -19.6999 55.0927 TC 35 -19.7317 55.1356 2 9 119
1975072S15052 1975 28 SI MM NOT_NAMED 1975-03-16 00:00:00 TS -19.9190 55.5068 spur-merge 123 100 O________OP___ jtwc_sh SH261975 -19.9000 55.5000 -1 -19.9000 55.5000 TC 35 -19.9579 55.5618 2 9 120
1975072S15052 1975 28 SI MM NOT_NAMED 1975-03-16 03:00:00 TS -20.1605 55.9399 spur-merge 91 88 P________PP___ SH261975 -20.1378 55.9396 -1 -20.1378 55.9396 TC 35 -20.1802 55.9821 2 10 120
1975072S15052 1975 28 SI MM NOT_NAMED 1975-03-16 06:00:00 TS -20.4000 56.4000 spur-merge 94 O________OO___ jtwc_sh SH261975 -20.4000 56.4000 -1 -20.4000 56.4000 TC 35 -20.4000 56.4000 2 10 119

IBTrACS Databaseについて

本データベースは、米国NOAAが公開する1842年以降の世界の熱帯低気圧のベストトラックデータアーカイブInternational Best Track Archive for Climate Stewardship (IBTrACS)を、ウェブで閲覧しやすい形式に変換したものです。

最終更新日:2021-12-06